sensor_id;sensor_type;location;lat;lon;timestamp;pressure;altitude;pressure_sealevel;temperature;humidity
35419;BME280;21525;41.240;16.500;2024-03-17T00:00:21;101838.31;;;20.34;69.62
35419;BME280;21525;41.240;16.500;2024-03-17T00:02:46;101840.31;;;20.27;69.51
35419;BME280;21525;41.240;16.500;2024-03-17T00:05:13;101841.72;;;20.12;70.39
35419;BME280;21525;41.240;16.500;2024-03-17T00:07:39;101839.69;;;20.19;69.78
35419;BME280;21525;41.240;16.500;2024-03-17T00:10:05;101838.16;;;20.13;70.03
35419;BME280;21525;41.240;16.500;2024-03-17T00:12:36;101832.53;;;20.23;69.93
35419;BME280;21525;41.240;16.500;2024-03-17T00:15:03;101834.41;;;20.19;69.71
35419;BME280;21525;41.240;16.500;2024-03-17T00:17:29;101837.72;;;20.26;69.01
35419;BME280;21525;41.240;16.500;2024-03-17T00:19:55;101836.81;;;20.75;68.10
35419;BME280;21525;41.240;16.500;2024-03-17T00:22:21;101834.47;;;20.18;69.13
35419;BME280;21525;41.240;16.500;2024-03-17T00:24:47;101838.28;;;20.10;70.19
35419;BME280;21525;41.240;16.500;2024-03-17T00:27:12;101838.94;;;19.91;71.37
35419;BME280;21525;41.240;16.500;2024-03-17T00:29:39;101840.78;;;20.40;68.05
35419;BME280;21525;41.240;16.500;2024-03-17T00:32:05;101840.09;;;20.08;69.47
35419;BME280;21525;41.240;16.500;2024-03-17T00:34:32;101836.84;;;20.25;68.39
35419;BME280;21525;41.240;16.500;2024-03-17T00:36:57;101840.56;;;20.20;69.09
35419;BME280;21525;41.240;16.500;2024-03-17T00:39:25;101844.22;;;20.16;68.61
35419;BME280;21525;41.240;16.500;2024-03-17T00:41:51;101847.00;;;20.12;68.53
35419;BME280;21525;41.240;16.500;2024-03-17T00:44:17;101841.31;;;19.98;68.93
35419;BME280;21525;41.240;16.500;2024-03-17T00:46:42;101844.94;;;20.21;68.43
35419;BME280;21525;41.240;16.500;2024-03-17T00:49:12;101839.28;;;20.06;69.12
35419;BME280;21525;41.240;16.500;2024-03-17T00:51:38;101838.06;;;20.15;68.56
35419;BME280;21525;41.240;16.500;2024-03-17T00:54:04;101828.50;;;20.12;69.57
35419;BME280;21525;41.240;16.500;2024-03-17T00:56:29;101837.09;;;20.44;68.23
35419;BME280;21525;41.240;16.500;2024-03-17T00:58:56;101836.56;;;19.83;69.86
35419;BME280;21525;41.240;16.500;2024-03-17T01:01:22;101831.47;;;19.78;70.44
35419;BME280;21525;41.240;16.500;2024-03-17T01:03:48;101836.91;;;19.99;68.80
35419;BME280;21525;41.240;16.500;2024-03-17T01:06:14;101831.22;;;19.85;69.11
35419;BME280;21525;41.240;16.500;2024-03-17T01:08:40;101835.59;;;19.86;69.93
35419;BME280;21525;41.240;16.500;2024-03-17T01:11:13;101837.31;;;20.13;68.62
35419;BME280;21525;41.240;16.500;2024-03-17T01:13:39;101835.53;;;20.38;67.91
35419;BME280;21525;41.240;16.500;2024-03-17T01:16:07;101832.63;;;20.20;67.86
35419;BME280;21525;41.240;16.500;2024-03-17T01:18:33;101832.84;;;20.40;67.33
35419;BME280;21525;41.240;16.500;2024-03-17T01:21:00;101824.66;;;20.21;67.58
35419;BME280;21525;41.240;16.500;2024-03-17T01:23:26;101826.09;;;20.06;68.10
35419;BME280;21525;41.240;16.500;2024-03-17T01:25:51;101833.44;;;19.97;69.40
35419;BME280;21525;41.240;16.500;2024-03-17T01:28:17;101832.41;;;19.76;69.49
35419;BME280;21525;41.240;16.500;2024-03-17T01:30:44;101818.22;;;20.05;68.90
35419;BME280;21525;41.240;16.500;2024-03-17T01:33:10;101818.06;;;19.83;69.85
35419;BME280;21525;41.240;16.500;2024-03-17T01:35:37;101823.28;;;20.83;65.29
35419;BME280;21525;41.240;16.500;2024-03-17T01:38:03;101825.16;;;20.07;67.28
35419;BME280;21525;41.240;16.500;2024-03-17T01:40:29;101820.25;;;19.97;68.33
35419;BME280;21525;41.240;16.500;2024-03-17T01:42:55;101828.25;;;19.69;69.29
35419;BME280;21525;41.240;16.500;2024-03-17T01:45:29;101820.03;;;19.78;69.27
35419;BME280;21525;41.240;16.500;2024-03-17T01:47:57;101822.81;;;19.73;69.71
35419;BME280;21525;41.240;16.500;2024-03-17T01:50:24;101821.41;;;19.63;69.93
35419;BME280;21525;41.240;16.500;2024-03-17T01:52:56;101819.28;;;19.99;68.43
35419;BME280;21525;41.240;16.500;2024-03-17T01:55:26;101816.13;;;19.88;68.86
35419;BME280;21525;41.240;16.500;2024-03-17T01:57:53;101813.69;;;20.08;68.84
35419;BME280;21525;41.240;16.500;2024-03-17T02:00:20;101811.28;;;19.76;69.54
35419;BME280;21525;41.240;16.500;2024-03-17T02:02:45;101811.06;;;19.82;69.05
35419;BME280;21525;41.240;16.500;2024-03-17T02:05:11;101821.41;;;19.63;70.13
35419;BME280;21525;41.240;16.500;2024-03-17T02:07:37;101814.00;;;19.74;68.88
35419;BME280;21525;41.240;16.500;2024-03-17T02:10:03;101809.53;;;19.76;69.39
35419;BME280;21525;41.240;16.500;2024-03-17T02:12:30;101807.09;;;19.70;70.07
35419;BME280;21525;41.240;16.500;2024-03-17T02:14:59;101809.63;;;19.73;69.98
35419;BME280;21525;41.240;16.500;2024-03-17T02:17:25;101803.75;;;19.90;69.76
35419;BME280;21525;41.240;16.500;2024-03-17T02:19:52;101807.13;;;19.69;70.73
35419;BME280;21525;41.240;16.500;2024-03-17T02:22:18;101814.34;;;19.64;70.66
35419;BME280;21525;41.240;16.500;2024-03-17T02:24:44;101807.41;;;19.86;69.91
35419;BME280;21525;41.240;16.500;2024-03-17T02:27:11;101813.22;;;19.71;71.27
35419;BME280;21525;41.240;16.500;2024-03-17T02:29:36;101814.63;;;20.31;68.67
35419;BME280;21525;41.240;16.500;2024-03-17T02:32:03;101802.13;;;19.86;70.59
35419;BME280;21525;41.240;16.500;2024-03-17T02:34:36;101807.44;;;20.11;71.24
35419;BME280;21525;41.240;16.500;2024-03-17T02:37:03;101806.34;;;19.92;70.73
35419;BME280;21525;41.240;16.500;2024-03-17T02:39:31;101803.00;;;19.87;73.13
35419;BME280;21525;41.240;16.500;2024-03-17T02:42:03;101811.81;;;19.86;72.92
35419;BME280;21525;41.240;16.500;2024-03-17T02:44:31;101801.91;;;19.67;73.83
35419;BME280;21525;41.240;16.500;2024-03-17T02:46:58;101799.88;;;20.00;71.31
35419;BME280;21525;41.240;16.500;2024-03-17T02:49:28;101795.31;;;19.81;72.70
35419;BME280;21525;41.240;16.500;2024-03-17T02:52:01;101800.44;;;20.33;70.97
35419;BME280;21525;41.240;16.500;2024-03-17T02:54:27;101798.66;;;19.59;73.74
35419;BME280;21525;41.240;16.500;2024-03-17T02:56:52;101796.44;;;19.98;73.00
35419;BME280;21525;41.240;16.500;2024-03-17T02:59:18;101792.91;;;19.73;73.72
35419;BME280;21525;41.240;16.500;2024-03-17T03:01:44;101793.44;;;19.83;73.01
35419;BME280;21525;41.240;16.500;2024-03-17T03:04:11;101788.84;;;19.63;74.83
35419;BME280;21525;41.240;16.500;2024-03-17T03:06:37;101790.31;;;19.45;76.25
35419;BME280;21525;41.240;16.500;2024-03-17T03:09:04;101788.91;;;19.61;76.11
35419;BME280;21525;41.240;16.500;2024-03-17T03:11:41;101789.84;;;19.32;76.81
35419;BME280;21525;41.240;16.500;2024-03-17T03:14:08;101789.91;;;19.57;75.72
35419;BME280;21525;41.240;16.500;2024-03-17T03:16:34;101784.69;;;19.56;76.26
35419;BME280;21525;41.240;16.500;2024-03-17T03:19:00;101792.25;;;19.40;77.90
35419;BME280;21525;41.240;16.500;2024-03-17T03:21:26;101779.91;;;20.17;74.22
35419;BME280;21525;41.240;16.500;2024-03-17T03:23:52;101788.84;;;19.63;76.60
35419;BME280;21525;41.240;16.500;2024-03-17T03:26:17;101781.50;;;19.46;76.26
35419;BME280;21525;41.240;16.500;2024-03-17T03:28:44;101783.16;;;19.49;76.76
35419;BME280;21525;41.240;16.500;2024-03-17T03:31:13;101780.91;;;19.36;77.04
35419;BME280;21525;41.240;16.500;2024-03-17T03:33:42;101772.00;;;19.40;76.90
35419;BME280;21525;41.240;16.500;2024-03-17T03:36:13;101766.97;;;19.59;76.35
35419;BME280;21525;41.240;16.500;2024-03-17T03:38:39;101774.81;;;19.62;75.33
35419;BME280;21525;41.240;16.500;2024-03-17T03:41:09;101774.09;;;19.82;75.54
35419;BME280;21525;41.240;16.500;2024-03-17T03:43:36;101777.25;;;19.93;75.15
35419;BME280;21525;41.240;16.500;2024-03-17T03:46:02;101773.84;;;19.90;75.18
35419;BME280;21525;41.240;16.500;2024-03-17T03:48:29;101781.41;;;19.75;74.18
35419;BME280;21525;41.240;16.500;2024-03-17T03:50:54;101786.16;;;19.64;75.18
35419;BME280;21525;41.240;16.500;2024-03-17T03:53:20;101782.72;;;19.87;74.55
35419;BME280;21525;41.240;16.500;2024-03-17T03:55:46;101790.06;;;20.04;73.84
35419;BME280;21525;41.240;16.500;2024-03-17T03:58:12;101793.41;;;20.09;71.66
35419;BME280;21525;41.240;16.500;2024-03-17T04:00:38;101790.13;;;19.51;75.40
35419;BME280;21525;41.240;16.500;2024-03-17T04:03:05;101798.72;;;19.83;74.33
35419;BME280;21525;41.240;16.500;2024-03-17T04:05:31;101801.09;;;20.15;71.99
35419;BME280;21525;41.240;16.500;2024-03-17T04:07:58;101798.59;;;20.12;72.17
35419;BME280;21525;41.240;16.500;2024-03-17T04:10:24;101791.84;;;20.03;74.15
35419;BME280;21525;41.240;16.500;2024-03-17T04:12:51;101802.22;;;20.33;71.61
35419;BME280;21525;41.240;16.500;2024-03-17T04:15:17;101802.25;;;19.57;74.63
35419;BME280;21525;41.240;16.500;2024-03-17T04:17:43;101803.44;;;19.74;74.72
35419;BME280;21525;41.240;16.500;2024-03-17T04:20:10;101805.56;;;19.63;73.99
35419;BME280;21525;41.240;16.500;2024-03-17T04:22:39;101811.06;;;19.82;74.53
35419;BME280;21525;41.240;16.500;2024-03-17T04:25:05;101809.25;;;19.30;76.58
35419;BME280;21525;41.240;16.500;2024-03-17T04:27:31;101809.59;;;19.19;77.19
35419;BME280;21525;41.240;16.500;2024-03-17T04:29:58;101807.22;;;19.39;75.56
35419;BME280;21525;41.240;16.500;2024-03-17T04:32:25;101807.41;;;19.33;75.45
35419;BME280;21525;41.240;16.500;2024-03-17T04:34:53;101804.78;;;19.60;73.80
35419;BME280;21525;41.240;16.500;2024-03-17T04:37:19;101807.50;;;19.30;76.21
35419;BME280;21525;41.240;16.500;2024-03-17T04:39:46;101805.47;;;19.66;75.30
35419;BME280;21525;41.240;16.500;2024-03-17T04:42:13;101805.09;;;19.51;75.15
35419;BME280;21525;41.240;16.500;2024-03-17T04:44:45;101812.50;;;19.11;76.07
35419;BME280;21525;41.240;16.500;2024-03-17T04:47:12;101817.28;;;19.27;76.64
35419;BME280;21525;41.240;16.500;2024-03-17T04:52:05;101822.50;;;19.28;76.27
35419;BME280;21525;41.240;16.500;2024-03-17T04:54:31;101836.38;;;19.35;75.24
35419;BME280;21525;41.240;16.500;2024-03-17T04:56:57;101843.56;;;19.02;76.93
35419;BME280;21525;41.240;16.500;2024-03-17T04:59:23;101847.16;;;18.99;77.56
35419;BME280;21525;41.240;16.500;2024-03-17T05:01:50;101849.72;;;19.01;76.68
35419;BME280;21525;41.240;16.500;2024-03-17T05:04:16;101843.31;;;19.09;76.39
35419;BME280;21525;41.240;16.500;2024-03-17T05:06:41;101850.94;;;19.74;73.36
35419;BME280;21525;41.240;16.500;2024-03-17T05:09:12;101853.47;;;20.04;71.56
35419;BME280;21525;41.240;16.500;2024-03-17T05:11:41;101864.53;;;19.89;71.30
35419;BME280;21525;41.240;16.500;2024-03-17T05:14:07;101859.69;;;19.49;73.11
35419;BME280;21525;41.240;16.500;2024-03-17T05:16:33;101858.19;;;19.68;72.06
35419;BME280;21525;41.240;16.500;2024-03-17T05:19:00;101871.44;;;19.66;71.76
35419;BME280;21525;41.240;16.500;2024-03-17T05:21:25;101869.31;;;19.22;73.81
35419;BME280;21525;41.240;16.500;2024-03-17T05:23:52;101869.16;;;19.26;73.66
35419;BME280;21525;41.240;16.500;2024-03-17T05:26:18;101874.94;;;19.67;73.25
35419;BME280;21525;41.240;16.500;2024-03-17T05:28:44;101866.06;;;19.41;72.97
35419;BME280;21525;41.240;16.500;2024-03-17T05:31:14;101874.16;;;19.35;74.10
35419;BME280;21525;41.240;16.500;2024-03-17T05:33:43;101874.81;;;19.71;73.33
35419;BME280;21525;41.240;16.500;2024-03-17T05:36:09;101866.03;;;19.43;72.62
35419;BME280;21525;41.240;16.500;2024-03-17T05:38:36;101870.97;;;19.54;73.30
35419;BME280;21525;41.240;16.500;2024-03-17T05:41:04;101873.38;;;19.61;70.99
35419;BME280;21525;41.240;16.500;2024-03-17T05:43:34;101866.72;;;19.76;70.62
35419;BME280;21525;41.240;16.500;2024-03-17T05:46:11;101868.94;;;20.88;67.24
35419;BME280;21525;41.240;16.500;2024-03-17T05:48:39;101867.41;;;22.54;59.72
35419;BME280;21525;41.240;16.500;2024-03-17T05:51:12;101866.69;;;23.27;56.82
35419;BME280;21525;41.240;16.500;2024-03-17T05:53:39;101866.94;;;24.77;52.00
35419;BME280;21525;41.240;16.500;2024-03-17T05:56:10;101861.25;;;25.94;49.04
35419;BME280;21525;41.240;16.500;2024-03-17T05:58:41;101856.50;;;26.43;47.71
35419;BME280;21525;41.240;16.500;2024-03-17T06:01:07;101849.97;;;27.45;44.97
35419;BME280;21525;41.240;16.500;2024-03-17T06:03:34;101858.63;;;28.28;44.10
35419;BME280;21525;41.240;16.500;2024-03-17T06:06:02;101853.81;;;28.33;43.50
35419;BME280;21525;41.240;16.500;2024-03-17T06:08:29;101853.47;;;28.75;43.04
35419;BME280;21525;41.240;16.500;2024-03-17T06:10:55;101855.09;;;28.91;42.69
35419;BME280;21525;41.240;16.500;2024-03-17T06:13:28;101844.47;;;29.73;41.25
35419;BME280;21525;41.240;16.500;2024-03-17T06:15:54;101849.97;;;29.35;41.53
35419;BME280;21525;41.240;16.500;2024-03-17T06:18:20;101860.28;;;29.41;41.39
35419;BME280;21525;41.240;16.500;2024-03-17T06:20:47;101860.78;;;30.05;40.61
35419;BME280;21525;41.240;16.500;2024-03-17T06:23:14;101861.69;;;30.17;40.12
35419;BME280;21525;41.240;16.500;2024-03-17T06:25:47;101856.03;;;30.09;40.27
35419;BME280;21525;41.240;16.500;2024-03-17T06:28:17;101859.66;;;30.65;39.63
35419;BME280;21525;41.240;16.500;2024-03-17T06:30:44;101854.88;;;31.02;38.53
35419;BME280;21525;41.240;16.500;2024-03-17T06:33:13;101854.09;;;31.23;38.87
35419;BME280;21525;41.240;16.500;2024-03-17T06:35:39;101867.19;;;31.91;38.28
35419;BME280;21525;41.240;16.500;2024-03-17T06:38:05;101866.91;;;31.94;37.65
35419;BME280;21525;41.240;16.500;2024-03-17T06:40:36;101872.53;;;32.84;36.66
35419;BME280;21525;41.240;16.500;2024-03-17T06:43:02;101876.09;;;33.34;36.39
35419;BME280;21525;41.240;16.500;2024-03-17T06:45:28;101869.34;;;32.69;35.94
35419;BME280;21525;41.240;16.500;2024-03-17T06:47:53;101875.41;;;32.92;36.54
35419;BME280;21525;41.240;16.500;2024-03-17T06:50:21;101878.41;;;33.68;35.66
35419;BME280;21525;41.240;16.500;2024-03-17T06:52:47;101878.97;;;33.62;35.38
35419;BME280;21525;41.240;16.500;2024-03-17T06:55:13;101876.69;;;33.96;35.10
35419;BME280;21525;41.240;16.500;2024-03-17T06:57:42;101880.28;;;33.18;35.78
35419;BME280;21525;41.240;16.500;2024-03-17T07:00:10;101876.75;;;35.52;33.79
35419;BME280;21525;41.240;16.500;2024-03-17T07:02:48;101882.25;;;35.15;33.48
35419;BME280;21525;41.240;16.500;2024-03-17T07:05:15;101893.56;;;34.74;33.97
35419;BME280;21525;41.240;16.500;2024-03-17T07:07:42;101890.88;;;35.46;33.24
35419;BME280;21525;41.240;16.500;2024-03-17T07:10:08;101884.34;;;35.03;33.60
35419;BME280;21525;41.240;16.500;2024-03-17T07:12:37;101896.38;;;34.82;33.70
35419;BME280;21525;41.240;16.500;2024-03-17T07:15:03;101893.44;;;35.30;32.64
35419;BME280;21525;41.240;16.500;2024-03-17T07:17:29;101895.63;;;36.23;31.57
35419;BME280;21525;41.240;16.500;2024-03-17T07:19:55;101899.41;;;36.05;32.00
35419;BME280;21525;41.240;16.500;2024-03-17T07:22:21;101900.19;;;37.17;31.47
35419;BME280;21525;41.240;16.500;2024-03-17T07:24:48;101893.34;;;37.71;30.90
35419;BME280;21525;41.240;16.500;2024-03-17T07:27:17;101899.81;;;36.70;31.15
35419;BME280;21525;41.240;16.500;2024-03-17T07:29:43;101906.25;;;36.68;31.21
35419;BME280;21525;41.240;16.500;2024-03-17T07:32:09;101909.22;;;37.25;30.80
35419;BME280;21525;41.240;16.500;2024-03-17T07:34:34;101910.47;;;36.97;31.28
35419;BME280;21525;41.240;16.500;2024-03-17T07:37:01;101913.00;;;35.77;32.27
35419;BME280;21525;41.240;16.500;2024-03-17T07:39:29;101911.72;;;34.91;32.58
35419;BME280;21525;41.240;16.500;2024-03-17T07:42:01;101920.38;;;33.32;34.44
35419;BME280;21525;41.240;16.500;2024-03-17T07:44:28;101914.19;;;33.89;34.19
35419;BME280;21525;41.240;16.500;2024-03-17T07:47:01;101932.34;;;32.27;35.97
35419;BME280;21525;41.240;16.500;2024-03-17T07:49:30;101923.47;;;32.15;36.31
35419;BME280;21525;41.240;16.500;2024-03-17T07:51:56;101934.53;;;32.01;36.69
35419;BME280;21525;41.240;16.500;2024-03-17T07:54:26;101930.22;;;32.10;36.63
35419;BME280;21525;41.240;16.500;2024-03-17T07:56:53;101929.25;;;32.31;35.46
35419;BME280;21525;41.240;16.500;2024-03-17T07:59:18;101932.28;;;31.31;37.04
35419;BME280;21525;41.240;16.500;2024-03-17T08:01:45;101931.59;;;31.61;37.31
35419;BME280;21525;41.240;16.500;2024-03-17T08:04:12;101934.97;;;31.42;36.73
35419;BME280;21525;41.240;16.500;2024-03-17T08:06:39;101937.41;;;31.34;36.02
35419;BME280;21525;41.240;16.500;2024-03-17T08:09:05;101939.63;;;31.06;36.59
35419;BME280;21525;41.240;16.500;2024-03-17T08:11:30;101935.25;;;31.82;35.59
35419;BME280;21525;41.240;16.500;2024-03-17T08:13:56;101934.84;;;31.32;37.46
35419;BME280;21525;41.240;16.500;2024-03-17T08:16:22;101939.47;;;31.42;36.22
35419;BME280;21525;41.240;16.500;2024-03-17T08:18:48;101936.84;;;31.73;35.46
35419;BME280;21525;41.240;16.500;2024-03-17T08:21:13;101950.38;;;31.29;35.66
35419;BME280;21525;41.240;16.500;2024-03-17T08:23:39;101942.09;;;31.75;35.24
35419;BME280;21525;41.240;16.500;2024-03-17T08:26:07;101946.47;;;31.33;36.13
35419;BME280;21525;41.240;16.500;2024-03-17T08:28:33;101951.22;;;30.96;36.79
35419;BME280;21525;41.240;16.500;2024-03-17T08:31:00;101944.63;;;31.22;37.07
35419;BME280;21525;41.240;16.500;2024-03-17T08:33:27;101940.47;;;31.07;37.28
35419;BME280;21525;41.240;16.500;2024-03-17T08:35:54;101945.84;;;31.40;37.03
35419;BME280;21525;41.240;16.500;2024-03-17T08:38:20;101939.13;;;31.24;37.09
35419;BME280;21525;41.240;16.500;2024-03-17T08:40:47;101941.69;;;30.92;36.66
35419;BME280;21525;41.240;16.500;2024-03-17T08:43:12;101945.34;;;30.68;37.45
35419;BME280;21525;41.240;16.500;2024-03-17T08:45:39;101955.13;;;30.92;36.43
35419;BME280;21525;41.240;16.500;2024-03-17T08:48:05;101945.38;;;30.80;36.96
35419;BME280;21525;41.240;16.500;2024-03-17T08:50:30;101942.84;;;30.54;37.62
35419;BME280;21525;41.240;16.500;2024-03-17T08:52:59;101941.97;;;30.31;37.88
35419;BME280;21525;41.240;16.500;2024-03-17T08:55:25;101949.56;;;30.49;38.18
35419;BME280;21525;41.240;16.500;2024-03-17T08:57:51;101941.19;;;30.64;38.15
35419;BME280;21525;41.240;16.500;2024-03-17T09:00:17;101941.22;;;31.09;37.59
35419;BME280;21525;41.240;16.500;2024-03-17T09:02:43;101940.25;;;30.77;37.74
35419;BME280;21525;41.240;16.500;2024-03-17T09:05:08;101939.63;;;30.27;37.74
35419;BME280;21525;41.240;16.500;2024-03-17T09:07:34;101947.31;;;30.31;38.00
35419;BME280;21525;41.240;16.500;2024-03-17T09:10:00;101945.94;;;30.15;38.56
35419;BME280;21525;41.240;16.500;2024-03-17T09:12:26;101955.19;;;29.63;39.87
35419;BME280;21525;41.240;16.500;2024-03-17T09:14:53;101953.50;;;30.10;39.26
35419;BME280;21525;41.240;16.500;2024-03-17T09:17:19;101949.16;;;30.31;38.67
35419;BME280;21525;41.240;16.500;2024-03-17T09:19:46;101954.53;;;30.31;38.43
35419;BME280;21525;41.240;16.500;2024-03-17T09:22:13;101948.13;;;30.10;38.17
35419;BME280;21525;41.240;16.500;2024-03-17T09:24:39;101950.53;;;30.01;38.27
35419;BME280;21525;41.240;16.500;2024-03-17T09:27:06;101948.34;;;30.06;38.56
35419;BME280;21525;41.240;16.500;2024-03-17T09:29:32;101953.19;;;30.36;37.90
35419;BME280;21525;41.240;16.500;2024-03-17T09:32:01;101954.03;;;30.26;38.10
35419;BME280;21525;41.240;16.500;2024-03-17T09:34:26;101950.94;;;30.08;37.63
35419;BME280;21525;41.240;16.500;2024-03-17T09:36:53;101946.06;;;30.59;37.10
35419;BME280;21525;41.240;16.500;2024-03-17T09:39:19;101954.75;;;30.28;36.96
35419;BME280;21525;41.240;16.500;2024-03-17T09:41:46;101949.56;;;30.02;37.15
35419;BME280;21525;41.240;16.500;2024-03-17T09:44:12;101946.69;;;30.28;36.48
35419;BME280;21525;41.240;16.500;2024-03-17T09:46:39;101946.31;;;29.86;37.09
35419;BME280;21525;41.240;16.500;2024-03-17T09:49:14;101947.38;;;30.07;36.67
35419;BME280;21525;41.240;16.500;2024-03-17T09:51:42;101941.81;;;29.98;37.20
35419;BME280;21525;41.240;16.500;2024-03-17T09:54:17;101950.53;;;30.01;36.80
35419;BME280;21525;41.240;16.500;2024-03-17T09:56:45;101949.25;;;29.70;37.10
35419;BME280;21525;41.240;16.500;2024-03-17T09:59:11;101953.44;;;29.25;37.14
35419;BME280;21525;41.240;16.500;2024-03-17T10:01:36;101955.41;;;29.11;37.14
35419;BME280;21525;41.240;16.500;2024-03-17T10:04:02;101948.34;;;29.59;36.38
35419;BME280;21525;41.240;16.500;2024-03-17T10:06:32;101950.09;;;28.85;36.49
35419;BME280;21525;41.240;16.500;2024-03-17T10:08:59;101951.19;;;29.32;36.45
35419;BME280;21525;41.240;16.500;2024-03-17T10:11:34;101954.16;;;29.40;36.87
35419;BME280;21525;41.240;16.500;2024-03-17T10:14:04;101953.69;;;29.22;36.82
35419;BME280;21525;41.240;16.500;2024-03-17T10:16:32;101948.50;;;29.45;38.11
35419;BME280;21525;41.240;16.500;2024-03-17T10:21:33;101948.13;;;28.62;40.96
35419;BME280;21525;41.240;16.500;2024-03-17T10:26:42;101946.84;;;28.02;41.90
35419;BME280;21525;41.240;16.500;2024-03-17T10:29:24;101948.13;;;29.13;39.10
35419;BME280;21525;41.240;16.500;2024-03-17T10:32:04;101945.56;;;28.73;39.34
35419;BME280;21525;41.240;16.500;2024-03-17T10:34:31;101943.00;;;28.97;38.92
35419;BME280;21525;41.240;16.500;2024-03-17T10:37:08;101940.31;;;28.97;38.37
35419;BME280;21525;41.240;16.500;2024-03-17T10:39:36;101949.03;;;28.88;38.03
35419;BME280;21525;41.240;16.500;2024-03-17T10:42:05;101937.88;;;28.56;38.69
35419;BME280;21525;41.240;16.500;2024-03-17T10:44:32;101945.56;;;28.60;38.98
35419;BME280;21525;41.240;16.500;2024-03-17T10:47:00;101944.53;;;28.88;38.56
35419;BME280;21525;41.240;16.500;2024-03-17T10:49:34;101940.25;;;29.48;37.83
35419;BME280;21525;41.240;16.500;2024-03-17T10:52:02;101941.38;;;28.69;38.54
35419;BME280;21525;41.240;16.500;2024-03-17T10:54:30;101943.00;;;28.71;38.47
35419;BME280;21525;41.240;16.500;2024-03-17T10:57:23;101938.41;;;28.73;38.46
35419;BME280;21525;41.240;16.500;2024-03-17T10:59:47;101943.75;;;28.48;38.71
35419;BME280;21525;41.240;16.500;2024-03-17T11:02:27;101942.25;;;28.57;38.55
35419;BME280;21525;41.240;16.500;2024-03-17T11:05:11;101942.66;;;28.63;37.95
35419;BME280;21525;41.240;16.500;2024-03-17T11:07:39;101946.09;;;28.65;38.32
35419;BME280;21525;41.240;16.500;2024-03-17T11:10:50;101939.97;;;27.86;39.96
35419;BME280;21525;41.240;16.500;2024-03-17T11:13:29;101938.50;;;27.53;41.07
35419;BME280;21525;41.240;16.500;2024-03-17T11:15:59;101948.56;;;26.20;42.78
35419;BME280;21525;41.240;16.500;2024-03-17T11:18:37;101943.94;;;26.08;43.03
35419;BME280;21525;41.240;16.500;2024-03-17T11:21:18;101940.47;;;26.22;42.44
35419;BME280;21525;41.240;16.500;2024-03-17T11:23:57;101942.59;;;26.89;41.23
35419;BME280;21525;41.240;16.500;2024-03-17T11:26:42;101940.75;;;26.75;40.88
35419;BME280;21525;41.240;16.500;2024-03-17T11:29:26;101939.34;;;25.80;41.79
35419;BME280;21525;41.240;16.500;2024-03-17T11:31:52;101927.13;;;25.13;43.30
35419;BME280;21525;41.240;16.500;2024-03-17T11:34:31;101938.84;;;25.58;42.57
35419;BME280;21525;41.240;16.500;2024-03-17T11:36:58;101928.88;;;25.77;41.97
35419;BME280;21525;41.240;16.500;2024-03-17T11:42:13;101931.16;;;26.29;41.26
35419;BME280;21525;41.240;16.500;2024-03-17T11:44:54;101917.78;;;27.16;40.40
35419;BME280;21525;41.240;16.500;2024-03-17T11:47:20;101912.50;;;27.69;39.74
35419;BME280;21525;41.240;16.500;2024-03-17T11:49:46;101914.84;;;27.06;40.64
35419;BME280;21525;41.240;16.500;2024-03-17T11:52:14;101923.78;;;26.48;41.26
35419;BME280;21525;41.240;16.500;2024-03-17T11:54:45;101916.41;;;26.07;42.29
35419;BME280;21525;41.240;16.500;2024-03-17T11:57:13;101912.16;;;25.89;42.79
35419;BME280;21525;41.240;16.500;2024-03-17T11:59:40;101907.53;;;25.93;42.75
35419;BME280;21525;41.240;16.500;2024-03-17T12:02:35;101900.88;;;26.30;42.26
35419;BME280;21525;41.240;16.500;2024-03-17T12:05:02;101915.34;;;26.26;42.32
35419;BME280;21525;41.240;16.500;2024-03-17T12:07:27;101905.97;;;26.19;42.52
35419;BME280;21525;41.240;16.500;2024-03-17T12:09:55;101910.28;;;26.21;42.54
35419;BME280;21525;41.240;16.500;2024-03-17T12:12:27;101906.34;;;26.13;43.01
35419;BME280;21525;41.240;16.500;2024-03-17T12:15:03;101896.81;;;25.47;44.35
35419;BME280;21525;41.240;16.500;2024-03-17T12:17:31;101902.06;;;24.84;45.77
35419;BME280;21525;41.240;16.500;2024-03-17T12:19:57;101894.41;;;24.78;45.60
35419;BME280;21525;41.240;16.500;2024-03-17T12:22:24;101897.84;;;23.95;47.51
35419;BME280;21525;41.240;16.500;2024-03-17T12:24:57;101893.16;;;24.52;46.27
35419;BME280;21525;41.240;16.500;2024-03-17T12:27:26;101885.81;;;24.23;48.21
35419;BME280;21525;41.240;16.500;2024-03-17T12:29:53;101874.16;;;24.42;47.89
35419;BME280;21525;41.240;16.500;2024-03-17T12:32:25;101873.13;;;24.78;47.37
35419;BME280;21525;41.240;16.500;2024-03-17T12:34:55;101875.56;;;24.50;47.18
35419;BME280;21525;41.240;16.500;2024-03-17T12:37:25;101877.06;;;24.21;48.22
35419;BME280;21525;41.240;16.500;2024-03-17T12:39:53;101875.31;;;24.54;47.88
35419;BME280;21525;41.240;16.500;2024-03-17T12:42:24;101866.00;;;24.63;47.18
35419;BME280;21525;41.240;16.500;2024-03-17T12:45:00;101876.03;;;24.23;47.52
35419;BME280;21525;41.240;16.500;2024-03-17T12:47:32;101867.34;;;24.37;47.68
35419;BME280;21525;41.240;16.500;2024-03-17T12:50:01;101865.31;;;24.07;48.00
35419;BME280;21525;41.240;16.500;2024-03-17T12:52:32;101866.28;;;23.89;47.56
35419;BME280;21525;41.240;16.500;2024-03-17T12:55:01;101862.81;;;24.22;46.96